Time;durP1;ratioP1;P1;durP2;ratioP2;P2;SDS_P1;SDS_P2;PMS_P1;PMS_P2;Temp;Humidity;BMP_temperature;BMP_pressure;BME280_temperature;BME280_humidity;BME280_pressure;Samples;Min_cycle;Max_cycle;Signal;HPM_P1;HPM_P2
2023/08/23 00:01:24;;;;;;;17.15;12.50;;;;;;;14.47;92.01;98710.81;4925836;28;20417;-77
2023/08/23 00:03:52;;;;;;;21.52;12.98;;;;;;;14.45;92.13;98679.78;4901539;28;20074;-80
2023/08/23 00:06:18;;;;;;;18.20;12.30;;;;;;;14.45;92.10;98693.19;4943063;28;20409;-74
2023/08/23 00:08:43;;;;;;;18.20;12.25;;;;;;;14.44;92.40;98721.03;4939491;28;20505;-77
2023/08/23 00:11:12;;;;;;;19.48;12.32;;;;;;;14.42;92.95;98713.16;4924623;28;20442;-79
2023/08/23 00:13:40;;;;;;;20.00;11.55;;;;;;;14.39;92.69;98707.22;4909405;28;20046;-80
2023/08/23 00:16:07;;;;;;;24.25;11.88;;;;;;;14.35;93.01;98689.75;4920125;28;20061;-80
2023/08/23 00:18:35;;;;;;;19.77;12.05;;;;;;;14.34;93.23;98694.25;4907079;28;20051;-80
2023/08/23 00:21:03;;;;;;;18.52;12.13;;;;;;;14.30;93.40;98713.50;4940382;28;20057;-79
2023/08/23 00:23:30;;;;;;;18.08;11.45;;;;;;;14.31;93.91;98683.03;4906643;29;20058;-74
2023/08/23 00:25:56;;;;;;;21.42;12.23;;;;;;;14.30;94.10;98681.34;4901106;29;20533;-74
2023/08/23 00:28:22;;;;;;;19.45;12.40;;;;;;;14.29;94.29;98706.47;4894242;29;20043;-75
2023/08/23 00:30:51;;;;;;;18.90;13.05;;;;;;;14.27;94.40;98685.16;4901751;29;20525;-75
2023/08/23 00:33:20;;;;;;;17.55;11.38;;;;;;;14.28;94.64;98700.25;4901648;29;20062;-75
2023/08/23 00:35:50;;;;;;;18.08;11.68;;;;;;;14.27;94.32;98676.28;4918905;28;20051;-76
2023/08/23 00:38:17;;;;;;;15.32;11.25;;;;;;;14.24;94.44;98680.13;4901062;29;20074;-74
2023/08/23 00:40:45;;;;;;;19.77;10.68;;;;;;;14.23;94.99;98680.25;4900936;29;20816;-73
2023/08/23 00:43:14;;;;;;;15.93;10.45;;;;;;;14.24;95.22;98692.66;4911920;28;20050;-73
2023/08/23 00:45:41;;;;;;;17.25;10.93;;;;;;;14.24;95.66;98676.59;4918612;28;20047;-74
2023/08/23 00:48:08;;;;;;;12.85;9.63;;;;;;;14.25;95.51;98684.47;4902918;28;20061;-75
2023/08/23 00:50:34;;;;;;;22.98;10.80;;;;;;;14.24;95.43;98660.50;4915968;29;20494;-73
2023/08/23 00:53:06;;;;;;;12.77;9.43;;;;;;;14.24;95.63;98698.88;4900777;28;20046;-76
2023/08/23 00:55:33;;;;;;;18.05;10.98;;;;;;;14.27;95.44;98685.16;4928520;28;20050;-77
2023/08/23 00:58:00;;;;;;;14.68;9.85;;;;;;;14.24;95.33;98693.50;4905759;28;20486;-81
2023/08/23 01:00:27;;;;;;;14.90;9.65;;;;;;;14.28;95.57;98686.00;4905683;28;20077;-78
2023/08/23 01:02:53;;;;;;;12.68;9.73;;;;;;;14.29;95.00;98674.28;4934919;28;20058;-77
2023/08/23 01:05:31;;;;;;;15.80;9.32;;;;;;;14.31;94.47;98666.94;4935286;28;20053;-76
2023/08/23 01:08:13;;;;;;;12.18;8.57;;;;;;;14.33;94.55;98673.00;4878635;28;20545;-77
2023/08/23 01:10:49;;;;;;;13.50;9.00;;;;;;;14.32;93.92;98680.19;4906216;28;20042;-76
2023/08/23 01:13:55;;;;;;;15.27;9.90;;;;;;;14.35;93.73;98657.56;4937269;28;20054;-77
2023/08/23 01:16:25;;;;;;;14.13;8.60;;;;;;;14.31;93.38;98673.16;4919653;28;20046;-77
2023/08/23 01:19:27;;;;;;;17.23;9.50;;;;;;;14.40;93.21;98660.66;4888465;28;20054;-76
2023/08/23 01:21:56;;;;;;;14.45;8.70;;;;;;;14.36;93.56;98669.97;4918823;28;20043;-75
2023/08/23 01:24:26;;;;;;;13.60;9.25;;;;;;;14.37;93.15;98660.94;4906095;28;20050;-77
2023/08/23 01:29:47;;;;;;;12.63;8.75;;;;;;;14.36;92.39;98665.47;4908901;28;20061;-75
2023/08/23 01:32:43;;;;;;;13.95;8.98;;;;;;;14.45;92.61;98669.91;4907983;28;20043;-75
2023/08/23 01:35:15;;;;;;;11.52;8.50;;;;;;;14.37;92.37;98672.50;4904066;29;20422;-77
2023/08/23 01:37:45;;;;;;;13.85;8.43;;;;;;;14.35;92.12;98653.03;4901995;28;20051;-75
2023/08/23 01:40:40;;;;;;;13.10;9.40;;;;;;;14.33;91.93;98691.75;4921159;28;20065;-76
2023/08/23 01:43:31;;;;;;;13.00;8.30;;;;;;;14.27;92.18;98654.84;4922687;28;20047;-76
2023/08/23 01:45:57;;;;;;;13.70;8.75;;;;;;;14.22;91.41;98662.53;4896237;29;20062;-75
2023/08/23 01:51:12;;;;;;;13.88;8.57;;;;;;;14.07;91.81;98660.41;4922508;28;20054;-75
2023/08/23 01:53:39;;;;;;;12.88;8.95;;;;;;;14.02;92.34;98673.41;4922556;28;20516;-75
2023/08/23 01:56:06;;;;;;;13.75;8.52;;;;;;;13.98;92.19;98649.78;4891092;29;20743;-78
2023/08/23 01:58:38;;;;;;;12.45;8.32;;;;;;;13.94;92.86;98669.81;4901390;29;20048;-77
2023/08/23 02:01:04;;;;;;;11.70;7.93;;;;;;;13.88;93.09;98686.53;4910138;29;20050;-76
2023/08/23 02:03:34;;;;;;;11.85;8.63;;;;;;;13.85;93.35;98682.31;4906507;29;20059;-76
2023/08/23 02:08:50;;;;;;;15.20;8.40;;;;;;;13.87;94.42;98674.97;4920569;29;20039;-71
2023/08/23 02:11:15;;;;;;;13.55;9.15;;;;;;;13.92;95.08;98677.16;4902486;29;20059;-76
2023/08/23 02:14:06;;;;;;;13.48;8.45;;;;;;;13.97;95.79;98685.59;4910703;28;20053;-76
2023/08/23 02:16:33;;;;;;;11.07;7.60;;;;;;;14.05;95.99;98673.09;4921596;28;20541;-75
2023/08/23 02:18:58;;;;;;;13.30;8.10;;;;;;;14.09;96.13;98661.09;4905296;28;20058;-76
2023/08/23 02:21:25;;;;;;;12.57;8.80;;;;;;;14.17;95.83;98671.88;4905505;28;20055;-73
2023/08/23 02:23:50;;;;;;;22.25;8.82;;;;;;;14.23;96.14;98674.91;4921068;28;20778;-74
2023/08/23 02:26:15;;;;;;;13.10;8.00;;;;;;;14.27;95.48;98669.09;4922352;28;20046;-73
2023/08/23 02:28:42;;;;;;;14.45;8.48;;;;;;;14.32;95.24;98680.19;4922507;28;20055;-74
2023/08/23 02:31:08;;;;;;;12.90;7.90;;;;;;;14.41;95.08;98673.06;4927050;28;20058;-74
2023/08/23 02:33:34;;;;;;;16.50;8.30;;;;;;;14.44;95.20;98672.78;4945171;28;20062;-74
2023/08/23 02:35:59;;;;;;;11.63;8.27;;;;;;;14.51;94.77;98676.50;4930993;28;20051;-74
2023/08/23 02:38:26;;;;;;;12.98;7.68;;;;;;;14.55;94.65;98672.50;4933406;28;20113;-75
2023/08/23 02:40:55;;;;;;;13.45;8.38;;;;;;;14.61;93.98;98679.91;4948512;28;20049;-76
2023/08/23 02:43:20;;;;;;;13.57;8.15;;;;;;;14.65;93.93;98665.19;4930010;28;20057;-78
2023/08/23 02:46:11;;;;;;;11.48;7.82;;;;;;;14.70;93.71;98668.22;4924263;28;20398;-78
2023/08/23 02:48:39;;;;;;;15.27;8.68;;;;;;;14.74;93.50;98691.06;4923947;28;20046;-78
2023/08/23 02:51:31;;;;;;;12.95;7.43;;;;;;;14.83;93.12;98674.00;4940707;28;20043;-78
2023/08/23 02:54:00;;;;;;;13.10;7.65;;;;;;;14.78;93.08;98659.38;4923416;28;20058;-76
2023/08/23 02:56:28;;;;;;;11.80;7.32;;;;;;;14.83;92.80;98676.66;4940226;28;20498;-79
2023/08/23 02:58:56;;;;;;;11.07;7.30;;;;;;;14.85;92.78;98661.25;4938965;28;20502;-72
2023/08/23 03:01:48;;;;;;;12.50;8.73;;;;;;;14.93;92.73;98673.88;4939337;28;20493;-72
2023/08/23 03:04:14;;;;;;;11.18;6.75;;;;;;;14.96;92.03;98670.88;4939303;28;20770;-72
2023/08/23 03:06:40;;;;;;;13.32;7.85;;;;;;;15.01;92.09;98675.75;4921491;28;20042;-73
2023/08/23 03:09:06;;;;;;;10.70;7.97;;;;;;;15.06;92.13;98673.41;4939248;28;20042;-72
2023/08/23 03:11:32;;;;;;;11.73;8.05;;;;;;;15.11;91.80;98671.94;4920973;28;20050;-72
2023/08/23 03:13:59;;;;;;;13.10;8.02;;;;;;;15.16;91.26;98668.75;4921437;28;20087;-72
2023/08/23 03:16:26;;;;;;;10.07;7.75;;;;;;;15.23;91.00;98667.13;4925253;28;20073;-72
2023/08/23 03:18:54;;;;;;;11.13;8.05;;;;;;;15.35;90.56;98660.41;4908226;28;20058;-73
2023/08/23 03:21:19;;;;;;;14.88;7.35;;;;;;;15.42;90.07;98685.63;4940454;28;20046;-73
2023/08/23 03:23:44;;;;;;;10.95;7.75;;;;;;;15.52;89.53;98658.63;4923683;28;20511;-72
2023/08/23 03:26:10;;;;;;;10.90;7.60;;;;;;;15.63;88.69;98660.19;4924408;28;20423;-72
2023/08/23 03:29:00;;;;;;;18.38;8.23;;;;;;;15.71;88.09;98649.44;4944075;28;20046;-72
2023/08/23 03:31:27;;;;;;;9.82;7.13;;;;;;;15.80;87.71;98656.53;4908460;28;20058;-72
2023/08/23 03:33:52;;;;;;;11.07;7.45;;;;;;;15.87;87.16;98674.50;4940258;28;20409;-71
2023/08/23 03:36:23;;;;;;;11.30;7.60;;;;;;;15.95;87.16;98660.22;4923612;28;20420;-72
2023/08/23 03:38:53;;;;;;;12.85;7.78;;;;;;;16.03;86.37;98668.28;4939880;28;20050;-72
2023/08/23 03:41:18;;;;;;;10.48;7.00;;;;;;;16.11;86.21;98656.69;4924187;28;20049;-71
2023/08/23 03:43:47;;;;;;;11.20;7.32;;;;;;;16.16;85.68;98651.63;4924210;28;20061;-71
2023/08/23 03:46:37;;;;;;;8.60;6.53;;;;;;;16.15;85.05;98666.09;4956837;28;20058;-71
2023/08/23 03:49:04;;;;;;;10.30;7.82;;;;;;;16.13;84.86;98647.47;4939081;28;20386;-71
2023/08/23 03:51:29;;;;;;;12.15;7.38;;;;;;;16.12;84.42;98642.25;4939401;28;20524;-71
2023/08/23 03:53:57;;;;;;;11.60;7.68;;;;;;;16.10;84.89;98647.78;4923587;28;20058;-71
2023/08/23 03:56:28;;;;;;;8.32;7.40;;;;;;;16.10;85.03;98647.78;4939752;28;20065;-71
2023/08/23 03:58:58;;;;;;;12.98;7.15;;;;;;;16.10;85.11;98652.34;4939792;28;20525;-70
2023/08/23 04:01:24;;;;;;;10.63;7.72;;;;;;;16.06;85.17;98646.44;4956930;28;20046;-73
2023/08/23 04:03:50;;;;;;;14.23;7.38;;;;;;;16.08;85.05;98639.06;4938530;28;20054;-72
2023/08/23 04:06:22;;;;;;;13.15;7.57;;;;;;;16.10;85.23;98663.94;4940125;28;20046;-72
2023/08/23 04:08:48;;;;;;;13.48;7.72;;;;;;;16.11;85.47;98665.63;4922898;28;20053;-72
2023/08/23 04:14:06;;;;;;;12.63;7.28;;;;;;;16.25;85.62;98651.47;4922952;28;20413;-71
2023/08/23 04:16:33;;;;;;;13.63;7.47;;;;;;;16.32;85.67;98655.16;4939234;28;20058;-71
2023/08/23 04:18:59;;;;;;;10.32;7.13;;;;;;;16.40;85.35;98659.69;4938864;28;20057;-70
2023/08/23 04:21:24;;;;;;;17.85;7.88;;;;;;;16.46;85.24;98706.59;4922731;28;20046;-72
2023/08/23 04:23:52;;;;;;;14.48;7.38;;;;;;;16.54;85.23;98648.25;4922453;28;20425;-71
2023/08/23 04:26:19;;;;;;;12.68;7.88;;;;;;;16.64;84.53;98657.00;4922868;28;20061;-71
2023/08/23 04:28:47;;;;;;;12.18;8.25;;;;;;;16.67;83.64;98651.28;4956448;28;20042;-72
2023/08/23 04:31:12;;;;;;;11.75;8.65;;;;;;;16.75;83.78;98645.00;4939141;28;20045;-72
2023/08/23 04:33:48;;;;;;;;;;;;;;;17.02;83.69;98639.22;4905061;28;20059;-72
2023/08/23 04:36:13;;;;;;;10.00;6.75;;;;;;;17.09;83.37;98636.63;4922824;28;19925;-73
2023/08/23 04:38:39;;;;;;;10.95;7.97;;;;;;;17.20;81.74;98630.03;4956380;28;20046;-73
2023/08/23 04:41:04;;;;;;;12.43;7.95;;;;;;;17.34;81.21;98640.06;4906667;28;20390;-71
2023/08/23 04:43:33;;;;;;;11.65;6.97;;;;;;;17.50;81.27;98610.31;4938982;28;20042;-72
2023/08/23 04:46:02;;;;;;;11.65;7.43;;;;;;;17.64;80.19;98633.81;4938990;28;20053;-72
2023/08/23 04:48:32;;;;;;;10.52;6.88;;;;;;;17.79;79.55;98631.19;4907830;28;20053;-72
2023/08/23 04:51:02;;;;;;;9.05;6.28;;;;;;;17.93;79.24;98626.88;4938581;28;20046;-71
2023/08/23 04:53:27;;;;;;;9.63;6.95;;;;;;;18.04;78.55;98621.06;4922544;28;20053;-72
2023/08/23 04:56:00;;;;;;;9.95;6.72;;;;;;;18.15;77.97;98628.72;4923067;28;20046;-72
2023/08/23 04:58:31;;;;;;;8.75;6.70;;;;;;;18.19;77.47;98627.31;4938187;28;20053;-72
2023/08/23 05:01:03;;;;;;;9.00;6.53;;;;;;;18.28;77.46;98625.41;4922487;28;20069;-73
2023/08/23 05:03:31;;;;;;;10.52;6.50;;;;;;;18.36;76.76;98623.44;4922223;28;20057;-73
2023/08/23 05:05:58;;;;;;;9.90;6.22;;;;;;;18.30;75.87;98637.66;4938575;28;20050;-72
2023/08/23 05:08:48;;;;;;;11.20;6.78;;;;;;;18.42;76.65;98638.06;4939565;28;20042;-72
2023/08/23 05:11:19;;;;;;;8.43;6.00;;;;;;;18.30;76.33;98628.72;4922680;28;20046;-74
2023/08/23 05:13:45;;;;;;;7.93;5.95;;;;;;;18.26;76.76;98632.84;4938437;28;20050;-74
2023/08/23 05:16:13;;;;;;;8.27;6.68;;;;;;;18.26;76.42;98633.69;4922428;28;20408;-74
2023/08/23 05:18:39;;;;;;;5.97;4.97;;;;;;;18.25;77.01;98648.19;4938813;28;20381;-74
2023/08/23 05:21:33;;;;;;;6.85;5.97;;;;;;;18.31;76.75;98642.03;4922217;28;20050;-74
2023/08/23 05:23:58;;;;;;;9.13;6.33;;;;;;;18.16;77.16;98638.50;4903196;28;20466;-73
2023/08/23 05:26:24;;;;;;;9.90;6.70;;;;;;;18.25;77.60;98637.38;4919299;28;20077;-74
2023/08/23 05:28:52;;;;;;;9.68;5.90;;;;;;;18.43;77.44;98624.38;4899370;28;20046;-74
2023/08/23 05:31:45;;;;;;;7.10;5.30;;;;;;;18.82;77.14;98623.31;4956268;28;20057;-75
2023/08/23 05:34:13;;;;;;;7.05;5.22;;;;;;;19.19;75.64;98615.06;4953819;28;20065;-75
2023/08/23 05:36:45;;;;;;;6.15;5.05;;;;;;;19.44;73.38;98612.03;4922978;28;20046;-75
2023/08/23 05:39:38;;;;;;;12.48;5.95;;;;;;;19.73;72.74;98598.44;4945767;28;20053;-75
2023/08/23 05:42:08;;;;;;;8.35;5.45;;;;;;;19.73;71.84;98590.34;4922226;28;20057;-77
2023/08/23 05:44:33;;;;;;;8.23;5.93;;;;;;;19.64;70.97;98612.28;4936470;28;20050;-73
2023/08/23 05:47:00;;;;;;;10.38;6.25;;;;;;;19.45;70.83;98619.13;4918973;28;20512;-72
2023/08/23 05:49:29;;;;;;;8.82;6.05;;;;;;;19.31;71.76;98625.38;4919400;28;20038;-73
2023/08/23 05:51:58;;;;;;;7.43;5.88;;;;;;;19.18;72.11;98623.38;4935068;28;20053;-72
2023/08/23 05:54:24;;;;;;;10.75;6.75;;;;;;;19.07;72.31;98622.00;4918023;28;20066;-72
2023/08/23 05:56:50;;;;;;;8.95;6.28;;;;;;;19.01;72.90;98655.16;4955306;28;20046;-72
2023/08/23 06:02:32;;;;;;;9.40;6.57;;;;;;;18.98;73.83;98616.88;4955455;28;20493;-71
2023/08/23 06:04:58;;;;;;;11.05;7.30;;;;;;;18.98;74.28;98622.28;4918332;28;20050;-71
2023/08/23 06:07:38;;;;;;;10.80;6.80;;;;;;;19.03;74.84;98620.69;4948178;28;20057;-71
2023/08/23 06:10:05;;;;;;;8.55;6.63;;;;;;;18.95;74.33;98639.72;4924807;28;20043;-72
2023/08/23 06:12:36;;;;;;;8.20;6.20;;;;;;;18.81;75.22;98632.44;4906715;28;20155;-72
2023/08/23 06:15:04;;;;;;;8.90;7.30;;;;;;;18.67;76.27;98630.56;4937783;28;20054;-71
2023/08/23 06:17:32;;;;;;;8.00;6.47;;;;;;;18.48;76.40;98626.53;4939859;28;20053;-72
2023/08/23 06:19:58;;;;;;;7.55;6.47;;;;;;;18.29;77.28;98649.47;4959041;28;20050;-71
2023/08/23 06:22:28;;;;;;;9.68;7.25;;;;;;;18.10;79.15;98620.31;4958952;28;20046;-71
2023/08/23 06:25:23;;;;;;;12.20;7.70;;;;;;;18.02;80.62;98633.88;4953890;28;20061;-70
2023/08/23 06:27:49;;;;;;;9.75;7.55;;;;;;;17.93;81.59;98643.06;4958609;28;20417;-70
2023/08/23 06:30:17;;;;;;;11.32;7.38;;;;;;;17.92;82.40;98625.22;4941373;28;20060;-71
2023/08/23 06:33:09;;;;;;;9.15;7.40;;;;;;;18.12;83.48;98647.94;4945358;28;20054;-72
2023/08/23 06:35:37;;;;;;;10.75;7.90;;;;;;;18.29;83.41;98627.88;4940698;28;20058;-71
2023/08/23 06:38:02;;;;;;;8.00;6.28;;;;;;;18.48;82.07;98629.25;4941427;28;20038;-71
2023/08/23 06:40:28;;;;;;;6.43;5.18;;;;;;;18.69;81.09;98640.19;4924548;28;20062;-71
2023/08/23 06:42:53;;;;;;;8.32;6.28;;;;;;;18.87;80.35;98629.00;4958206;28;20520;-72
2023/08/23 06:48:14;;;;;;;9.85;4.95;;;;;;;19.12;78.11;98626.81;4958530;28;20046;-72
2023/08/23 06:50:40;;;;;;;5.53;4.45;;;;;;;19.25;77.57;98637.81;4958616;28;20046;-72
2023/08/23 06:53:08;;;;;;;5.80;4.82;;;;;;;19.33;76.48;98653.06;4958475;28;20053;-72
2023/08/23 06:55:58;;;;;;;5.75;4.95;;;;;;;19.36;74.81;98652.69;4940944;28;20050;-74
2023/08/23 06:58:24;;;;;;;5.10;4.60;;;;;;;19.19;73.82;98658.31;4941074;28;20430;-75
2023/08/23 07:00:50;;;;;;;6.72;4.50;;;;;;;19.06;74.22;98633.00;4940948;28;20843;-74
2023/08/23 07:12:07;;;;;;;9.00;6.03;;;;;;;18.70;76.43;98641.00;4939536;28;20054;-74
2023/08/23 07:14:38;;;;;;;5.03;4.33;;;;;;;18.68;76.60;98630.41;4930729;28;20046;-74
2023/08/23 07:17:04;;;;;;;4.53;4.13;;;;;;;18.68;76.36;98638.50;4923786;28;20050;-74
2023/08/23 07:19:35;;;;;;;6.55;5.10;;;;;;;18.67;76.19;98633.28;4921129;28;20053;-72
2023/08/23 07:22:01;;;;;;;7.20;5.20;;;;;;;18.57;76.54;98629.97;4935004;28;20054;-71
2023/08/23 07:24:31;;;;;;;8.10;5.63;;;;;;;18.61;77.10;98642.13;4941914;28;20046;-72
2023/08/23 07:27:23;;;;;;;6.75;4.68;;;;;;;18.55;76.79;98665.25;4928812;28;20047;-73
2023/08/23 07:29:49;;;;;;;9.75;5.25;;;;;;;18.61;77.18;98636.72;4904662;28;20066;-73
2023/08/23 07:32:15;;;;;;;6.55;5.68;;;;;;;18.75;77.30;98642.13;4909299;28;20073;-81
2023/08/23 07:34:45;;;;;;;6.75;5.28;;;;;;;18.96;76.67;98640.56;4924035;28;20565;-84
2023/08/23 07:37:17;;;;;;;6.45;5.40;;;;;;;19.13;75.59;98642.84;4924114;28;20047;-82
2023/08/23 07:43:00;;;;;;;6.63;5.00;;;;;;;19.11;74.10;98627.84;4923721;28;20051;-80
2023/08/23 07:45:27;;;;;;;10.05;4.90;;;;;;;18.98;74.47;98641.19;4942551;28;20409;-74
2023/08/23 07:47:56;;;;;;;5.88;4.78;;;;;;;18.76;74.72;98640.25;4940363;28;20046;-73
2023/08/23 07:50:22;;;;;;;5.03;4.45;;;;;;;18.66;75.36;98645.09;4957723;28;20045;-72
2023/08/23 07:52:51;;;;;;;6.72;5.00;;;;;;;18.64;76.19;98642.56;4940345;28;20046;-73
2023/08/23 07:55:17;;;;;;;5.97;4.88;;;;;;;18.60;76.47;98645.84;4958412;28;20068;-73
2023/08/23 07:57:42;;;;;;;6.07;4.65;;;;;;;18.51;76.74;98637.78;4958953;28;20042;-73
2023/08/23 08:00:09;;;;;;;6.95;4.70;;;;;;;18.47;76.81;98630.25;4944835;28;20053;-71
2023/08/23 08:03:03;;;;;;;6.85;4.60;;;;;;;18.40;76.53;98640.94;4928604;28;20057;-73
2023/08/23 08:05:30;;;;;;;5.57;4.40;;;;;;;18.32;77.17;98635.63;4958014;28;20049;-74
2023/08/23 08:07:56;;;;;;;5.82;4.30;;;;;;;18.28;77.51;98653.22;4925649;28;20038;-77
2023/08/23 08:10:26;;;;;;;5.38;4.65;;;;;;;18.24;77.68;98646.50;4939919;28;20057;-73
2023/08/23 08:12:51;;;;;;;6.68;4.97;;;;;;;18.21;77.56;98646.84;4942188;28;20042;-75
2023/08/23 08:15:22;;;;;;;5.13;4.43;;;;;;;18.19;77.89;98643.50;4941059;28;20050;-72
2023/08/23 08:18:39;;;;;;;6.20;4.35;;;;;;;18.26;78.31;98647.16;4937900;28;20069;-75
2023/08/23 08:21:33;;;;;;;6.10;4.63;;;;;;;18.32;78.10;98641.03;4902246;29;20059;-74
2023/08/23 08:23:59;;;;;;;5.93;4.28;;;;;;;18.43;77.47;98645.13;4919533;29;20054;-72
2023/08/23 08:26:28;;;;;;;5.53;4.68;;;;;;;18.59;77.42;98644.16;4932506;28;20047;-73
2023/08/23 08:28:54;;;;;;;4.97;4.20;;;;;;;18.65;76.77;98636.16;4937099;28;20057;-74
2023/08/23 08:31:20;;;;;;;5.28;4.78;;;;;;;18.71;76.36;98640.84;4914783;28;20058;-74
2023/08/23 08:33:47;;;;;;;6.43;4.78;;;;;;;18.75;75.71;98627.78;4902372;28;20055;-74
2023/08/23 08:36:13;;;;;;;6.07;4.13;;;;;;;18.93;75.54;98657.97;4913832;29;20051;-74
2023/08/23 08:41:32;;;;;;;6.55;4.82;;;;;;;20.02;74.01;98643.44;4945757;28;20046;-81
2023/08/23 08:43:59;;;;;;;6.32;4.60;;;;;;;20.68;71.77;98630.47;4912949;29;20062;-80
2023/08/23 08:46:28;;;;;;;6.43;4.60;;;;;;;21.21;68.87;98618.06;4884692;28;20051;-80
2023/08/23 08:48:55;;;;;;;5.95;5.05;;;;;;;21.52;66.39;98619.44;4921747;29;20043;-81
2023/08/23 08:51:20;;;;;;;7.28;4.82;;;;;;;21.58;65.03;98622.13;4926868;28;20043;-80
2023/08/23 08:53:51;;;;;;;8.40;4.53;;;;;;;21.52;64.72;98641.13;4917212;29;20047;-80
2023/08/23 08:56:22;;;;;;;6.88;4.50;;;;;;;21.44;64.71;98608.78;4909983;28;20054;-80
2023/08/23 08:58:48;;;;;;;5.60;4.38;;;;;;;21.40;65.16;98631.91;4922529;28;20532;-81
2023/08/23 09:06:58;;;;;;;5.38;4.60;;;;;;;20.79;65.63;98612.81;4942739;28;20053;-80
2023/08/23 09:09:24;;;;;;;5.95;4.40;;;;;;;20.81;66.47;98616.16;4925383;28;20038;-79
2023/08/23 09:11:52;;;;;;;7.53;4.03;;;;;;;20.96;66.74;98604.16;4919186;28;20043;-80
2023/08/23 09:14:25;;;;;;;7.78;4.07;;;;;;;21.31;65.52;98617.69;4940904;28;20127;-81
2023/08/23 09:16:50;;;;;;;8.18;4.30;;;;;;;21.78;64.28;98584.22;4939553;28;20501;-80
2023/08/23 09:19:16;;;;;;;4.55;3.97;;;;;;;22.30;62.53;98607.03;4944550;28;20043;-79
2023/08/23 09:21:50;;;;;;;5.57;3.45;;;;;;;22.91;61.36;98613.00;4943493;28;20066;-80
2023/08/23 09:24:18;;;;;;;6.28;4.40;;;;;;;23.32;59.48;98601.78;4926080;28;20050;-80
2023/08/23 09:26:48;;;;;;;5.10;4.20;;;;;;;23.55;58.31;98616.75;4924210;28;20062;-79
2023/08/23 09:29:13;;;;;;;5.88;4.45;;;;;;;23.59;58.08;98624.25;4924624;28;20047;-79
2023/08/23 09:31:40;;;;;;;5.20;4.32;;;;;;;23.69;56.76;98608.31;4928263;28;20090;-81
2023/08/23 09:34:14;;;;;;;5.07;4.18;;;;;;;24.01;55.94;98617.28;4946373;28;20042;-81
2023/08/23 09:36:42;;;;;;;4.70;4.15;;;;;;;24.49;55.37;98606.63;4922531;28;20055;-79
2023/08/23 09:39:14;;;;;;;6.22;3.90;;;;;;;25.22;53.80;98601.28;4941897;28;20046;-80
2023/08/23 09:41:41;;;;;;;6.88;4.35;;;;;;;25.92;51.35;98592.56;4939921;28;20425;-81
2023/08/23 09:44:11;;;;;;;5.95;3.85;;;;;;;26.27;50.43;98590.75;4943489;28;20054;-81
2023/08/23 09:47:05;;;;;;;4.57;4.07;;;;;;;26.24;49.46;98590.38;4948492;28;20390;-83
2023/08/23 09:49:59;;;;;;;7.20;4.28;;;;;;;26.02;49.34;98581.91;4912641;28;20389;-81
2023/08/23 09:52:31;;;;;;;4.18;3.60;;;;;;;24.99;51.03;98598.41;4920215;28;20054;-81
2023/08/23 09:55:11;;;;;;;6.05;3.97;;;;;;;24.34;52.36;98599.88;4933816;28;20054;-82
2023/08/23 09:58:04;;;;;;;5.95;3.83;;;;;;;23.24;54.57;98625.66;4946447;28;20058;-82
2023/08/23 10:00:56;;;;;;;8.77;4.05;;;;;;;22.57;58.69;98610.56;4916369;28;20054;-81
2023/08/23 10:09:06;;;;;;;6.63;3.90;;;;;;;20.17;65.91;98617.16;4937446;28;20053;-83
2023/08/23 10:11:36;;;;;;;5.80;4.30;;;;;;;19.86;68.48;98632.91;4932059;28;20058;-83
2023/08/23 10:14:10;;;;;;;6.75;4.38;;;;;;;19.67;69.46;98634.34;4936314;28;20131;-85
2023/08/23 10:16:39;;;;;;;6.40;4.40;;;;;;;19.59;71.38;98631.78;4953414;28;20066;-83
2023/08/23 10:19:07;;;;;;;6.30;4.45;;;;;;;19.54;72.00;98618.84;4916614;28;20047;-84
2023/08/23 10:21:34;;;;;;;6.00;4.38;;;;;;;19.63;73.35;98611.47;4938584;28;20039;-84
2023/08/23 10:24:04;;;;;;;7.18;4.32;;;;;;;19.94;74.26;98571.38;4917041;28;20054;-82
2023/08/23 10:29:39;;;;;;;6.07;4.60;;;;;;;20.71;72.65;98615.69;4952295;28;20173;-81
2023/08/23 10:32:09;;;;;;;6.53;4.50;;;;;;;21.02;72.01;98611.47;4965770;28;20405;-81
2023/08/23 10:34:43;;;;;;;7.70;4.53;;;;;;;21.21;70.73;98609.94;4957604;28;20395;-84
2023/08/23 10:37:16;;;;;;;6.10;4.90;;;;;;;21.30;69.55;98605.19;4938577;28;20057;-83
2023/08/23 10:40:08;;;;;;;9.27;5.10;;;;;;;21.18;68.90;98613.06;4947352;28;20047;-83
2023/08/23 10:43:03;;;;;;;7.68;5.10;;;;;;;21.19;69.60;98619.31;4935438;28;20057;-82
2023/08/23 10:45:32;;;;;;;7.70;4.78;;;;;;;20.87;69.59;98616.22;4953532;28;20030;-83
2023/08/23 10:48:27;;;;;;;6.13;4.55;;;;;;;20.69;69.81;98574.41;4939596;28;20054;-83
2023/08/23 10:50:54;;;;;;;6.93;5.13;;;;;;;20.49;70.31;98609.50;4964280;28;20043;-82
2023/08/23 10:53:21;;;;;;;6.45;4.50;;;;;;;20.30;70.15;98613.72;4947554;28;20054;-83
2023/08/23 10:56:11;;;;;;;6.80;5.20;;;;;;;20.09;69.90;98609.16;4933671;28;20501;-83
2023/08/23 10:58:40;;;;;;;10.68;6.03;;;;;;;19.92;69.94;98611.31;4943121;28;20054;-83
2023/08/23 11:01:06;;;;;;;13.55;5.28;;;;;;;19.79;70.04;98604.94;4947149;28;20050;-83
2023/08/23 11:03:35;;;;;;;8.25;5.40;;;;;;;19.61;69.96;98599.16;4931839;28;20053;-80
2023/08/23 11:06:03;;;;;;;8.48;6.35;;;;;;;19.43;69.84;98610.34;4943922;28;20038;-71
2023/08/23 11:08:30;;;;;;;8.35;5.80;;;;;;;19.19;70.17;98611.53;4939944;28;20133;-72
2023/08/23 11:11:21;;;;;;;9.35;5.60;;;;;;;19.04;71.96;98640.44;4957790;28;20489;-72
2023/08/23 11:13:46;;;;;;;14.48;7.53;;;;;;;18.64;73.40;98664.19;4958335;28;20053;-74
2023/08/23 11:16:13;;;;;;;26.90;8.68;;;;;;;18.32;75.13;98641.03;4927298;28;20433;-71
2023/08/23 11:18:40;;;;;;;9.27;4.60;;;;;;;17.96;76.91;98631.91;4943325;28;20493;-72
2023/08/23 11:21:09;;;;;;;9.38;4.63;;;;;;;17.60;77.95;98632.50;4942109;28;20058;-73
2023/08/23 11:24:04;;;;;;;8.98;4.13;;;;;;;17.39;79.95;98633.09;4924263;28;20061;-73
2023/08/23 11:26:34;;;;;;;6.93;4.32;;;;;;;17.45;82.18;98639.66;4928781;28;20050;-72
2023/08/23 11:29:04;;;;;;;8.27;3.75;;;;;;;17.65;83.98;98630.13;4907772;28;20058;-73
2023/08/23 11:31:39;;;;;;;8.10;4.50;;;;;;;17.86;84.91;98631.31;4924343;28;20493;-72
2023/08/23 11:34:30;;;;;;;5.72;4.10;;;;;;;18.20;85.43;98625.44;4940449;28;20046;-71
2023/08/23 11:40:39;;;;;;;7.47;4.78;;;;;;;18.47;84.78;98625.69;4957438;28;20061;-72
2023/08/23 11:43:07;;;;;;;7.78;4.82;;;;;;;18.49;85.05;98628.22;4957619;28;20046;-72
2023/08/23 11:45:42;;;;;;;7.05;4.60;;;;;;;18.49;85.75;98623.66;4955443;28;20060;-70
2023/08/23 11:48:08;;;;;;;12.48;5.00;;;;;;;18.58;86.22;98631.69;4941477;28;20042;-71
2023/08/23 11:50:33;;;;;;;6.53;4.45;;;;;;;18.62;86.41;98617.66;4938058;28;20050;-73
2023/08/23 11:53:02;;;;;;;8.45;5.18;;;;;;;18.56;85.94;98623.75;4942267;28;20502;-71
2023/08/23 11:55:28;;;;;;;6.95;4.28;;;;;;;18.43;84.45;98623.53;4941815;28;20049;-73
2023/08/23 11:57:54;;;;;;;6.70;4.35;;;;;;;18.34;84.52;98625.50;4957104;28;20046;-72
2023/08/23 12:00:21;;;;;;;8.15;5.25;;;;;;;18.27;84.13;98618.31;4956716;28;20046;-73
2023/08/23 12:02:49;;;;;;;7.82;5.88;;;;;;;18.19;84.65;98613.81;4938672;28;20054;-73
2023/08/23 12:05:17;;;;;;;7.43;5.35;;;;;;;18.12;84.99;98615.59;4957572;28;20054;-73
2023/08/23 12:07:48;;;;;;;7.53;5.18;;;;;;;18.12;85.69;98604.78;4957598;28;20046;-74
2023/08/23 12:10:16;;;;;;;7.43;5.63;;;;;;;18.08;85.45;98609.72;4957300;28;20046;-76
2023/08/23 12:15:31;;;;;;;8.95;5.35;;;;;;;18.24;85.92;98603.34;4937807;28;20050;-70
2023/08/23 12:17:57;;;;;;;6.90;5.57;;;;;;;18.41;86.01;98604.00;4940932;28;20062;-73
2023/08/23 12:20:28;;;;;;;10.30;5.97;;;;;;;18.61;86.41;98620.53;4920111;28;20057;-70
2023/08/23 12:22:53;;;;;;;10.70;6.05;;;;;;;18.84;86.56;98605.09;4920099;28;20069;-72
2023/08/23 12:25:19;;;;;;;9.32;5.30;;;;;;;19.02;85.52;98597.41;4937464;28;20054;-73
2023/08/23 12:28:35;;;;;;;7.25;4.18;;;;;;;19.43;83.52;98596.84;4937349;28;20050;-72
2023/08/23 12:31:01;;;;;;;;;;;;;;;19.82;81.84;98593.75;4920620;28;20047;-71
2023/08/23 12:33:29;;;;;;;9.55;3.97;;;;;;;19.76;80.19;98599.91;4945273;28;20514;-72
2023/08/23 12:35:59;;;;;;;8.52;4.75;;;;;;;19.94;78.91;98598.44;4939381;28;20038;-73
2023/08/23 12:38:30;;;;;;;9.43;5.00;;;;;;;20.09;77.82;98595.63;4940050;28;20053;-73
2023/08/23 12:41:27;;;;;;;9.73;4.97;;;;;;;20.27;76.26;98593.28;4932219;28;20077;-73